createdAt,value
2023-02-14T01:31:02.098Z,94643.00
2023-02-14T01:32:01.748Z,94643.00
2023-02-14T01:33:01.663Z,94637.00
2023-02-14T01:34:01.636Z,94639.00
2023-02-14T01:35:01.603Z,94639.00
2023-02-14T01:36:01.607Z,94641.00
2023-02-14T01:37:01.558Z,94641.00
2023-02-14T01:38:01.521Z,94641.00
2023-02-14T01:39:01.490Z,94641.00
2023-02-14T01:40:01.472Z,94641.00
2023-02-14T01:41:01.704Z,94641.00
2023-02-14T01:42:01.424Z,94639.00
2023-02-14T01:43:01.404Z,94639.00
2023-02-14T01:44:01.355Z,94639.00
2023-02-14T01:45:01.341Z,94639.00
2023-02-14T01:46:01.361Z,94641.00
2023-02-14T01:47:01.287Z,94639.00
2023-02-14T01:48:01.344Z,94635.00
2023-02-14T01:49:01.247Z,94637.00
2023-02-14T01:50:01.217Z,94633.00
2023-02-14T01:51:01.570Z,94633.00
2023-02-14T01:52:03.838Z,94631.00
2023-02-14T01:53:01.131Z,94631.00
2023-02-14T01:54:01.099Z,94631.00
2023-02-14T01:55:01.073Z,94631.00
2023-02-14T01:56:01.042Z,94633.00
2023-02-14T01:57:01.010Z,94631.00
2023-02-14T01:58:00.982Z,94631.00
2023-02-14T01:59:00.937Z,94633.00
2023-02-14T02:00:01.186Z,94631.00
2023-02-14T02:01:01.206Z,94633.00
2023-02-14T02:02:00.882Z,94631.00
2023-02-14T02:03:00.857Z,94631.00
2023-02-14T02:04:00.818Z,94629.00
2023-02-14T02:05:00.790Z,94627.00
2023-02-14T02:06:00.767Z,94627.00
2023-02-14T02:07:00.741Z,94625.00
2023-02-14T02:08:00.831Z,94625.00
2023-02-14T02:09:00.770Z,94627.00
2023-02-14T02:10:00.680Z,94625.00
2023-02-14T02:11:00.911Z,94621.00
2023-02-14T02:12:00.577Z,94623.00
2023-02-14T02:13:00.551Z,94627.00
2023-02-14T02:14:00.599Z,94625.00
2023-02-14T02:15:00.520Z,94625.00
2023-02-14T02:16:00.472Z,94623.00
2023-02-14T02:17:00.489Z,94619.00
2023-02-14T02:18:00.485Z,94617.00
2023-02-14T02:19:00.403Z,94621.00
2023-02-14T02:20:00.366Z,94621.00
2023-02-14T02:21:00.656Z,94621.00
2023-02-14T02:22:00.326Z,94621.00
2023-02-14T02:23:00.287Z,94617.00
2023-02-14T02:24:00.269Z,94619.00
2023-02-14T02:25:00.247Z,94619.00
2023-02-14T02:26:00.218Z,94617.00
2023-02-14T02:27:00.180Z,94617.00
2023-02-14T02:28:00.162Z,94616.00
2023-02-14T02:29:00.138Z,94616.00
2023-02-14T02:30:00.168Z,94614.00
2023-02-14T02:31:00.561Z,94614.00
2023-02-14T02:32:00.278Z,94612.00
2023-02-14T02:33:00.029Z,94608.00
2023-02-14T02:33:59.998Z,94606.00
2023-02-14T02:34:59.958Z,94608.00
2023-02-14T02:35:59.937Z,94602.00
2023-02-14T02:36:59.915Z,94602.00
2023-02-14T02:37:59.893Z,94604.00
2023-02-14T02:38:59.844Z,94602.00
2023-02-14T02:39:59.825Z,94606.00
2023-02-14T02:41:00.100Z,94604.00
2023-02-14T02:41:59.767Z,94604.00
2023-02-14T02:42:59.722Z,94608.00
2023-02-14T02:43:59.700Z,94608.00
2023-02-14T02:44:59.671Z,94606.00
2023-02-14T02:45:59.684Z,94612.00
2023-02-14T02:46:59.615Z,94610.00
2023-02-14T02:47:59.585Z,94608.00
2023-02-14T02:48:59.572Z,94612.00
2023-02-14T02:49:59.528Z,94606.00
2023-02-14T02:50:59.820Z,94608.00
2023-02-14T02:51:59.472Z,94606.00
2023-02-14T02:52:59.453Z,94606.00
2023-02-14T02:53:59.424Z,94608.00
2023-02-14T02:54:59.395Z,94608.00
2023-02-14T02:55:59.369Z,94606.00
2023-02-14T02:56:59.340Z,94608.00
2023-02-14T02:57:59.322Z,94608.00
2023-02-14T02:58:59.292Z,94606.00
2023-02-14T02:59:59.263Z,94604.00
2023-02-14T03:00:59.545Z,94604.00
2023-02-14T03:01:59.198Z,94604.00
2023-02-14T03:02:59.176Z,94602.00
2023-02-14T03:03:59.146Z,94602.00
2023-02-14T03:04:59.178Z,94598.00
2023-02-14T03:05:59.194Z,94592.00
2023-02-14T03:06:59.245Z,94594.00
2023-02-14T03:07:59.282Z,94594.00
2023-02-14T03:08:59.355Z,94592.00
2023-02-14T03:09:59.346Z,94588.00
2023-02-14T03:10:59.641Z,94594.00
2023-02-14T03:11:59.414Z,94596.00
2023-02-14T03:12:59.436Z,94596.00
2023-02-14T03:13:59.479Z,94594.00
2023-02-14T03:14:59.504Z,94594.00
2023-02-14T03:15:59.679Z,94594.00
2023-02-14T03:16:59.581Z,94596.00
2023-02-14T03:17:59.609Z,94596.00
2023-02-14T03:18:59.647Z,94596.00
2023-02-14T03:19:59.673Z,94596.00
2023-02-14T03:20:59.957Z,94594.00
2023-02-14T03:21:59.709Z,94594.00
2023-02-14T03:22:59.740Z,94596.00
2023-02-14T03:23:59.789Z,94596.00
2023-02-14T03:24:59.828Z,94598.00
2023-02-14T03:25:59.847Z,94598.00
2023-02-14T03:26:59.885Z,94600.00
2023-02-14T03:27:59.916Z,94604.00
2023-02-14T03:29:00.032Z,94602.00
2023-02-14T03:30:00.081Z,94602.00
2023-02-14T03:31:00.333Z,94604.00
2023-02-14T03:32:00.203Z,94604.00
2023-02-14T03:33:00.146Z,94608.00
2023-02-14T03:34:00.143Z,94602.00
2023-02-14T03:35:00.171Z,94598.00
2023-02-14T03:36:00.219Z,94600.00
2023-02-14T03:37:00.260Z,94596.00
2023-02-14T03:38:00.350Z,94596.00
2023-02-14T03:39:00.445Z,94602.00
2023-02-14T03:40:00.362Z,94604.00
2023-02-14T03:41:00.744Z,94602.00
2023-02-14T03:42:00.420Z,94604.00
2023-02-14T03:43:00.447Z,94608.00
2023-02-14T03:44:00.494Z,94606.00
2023-02-14T03:45:00.580Z,94608.00
2023-02-14T03:46:00.597Z,94612.00
2023-02-14T03:47:00.607Z,94612.00
2023-02-14T03:48:00.632Z,94612.00
2023-02-14T03:49:00.668Z,94617.00
2023-02-14T03:50:00.708Z,94616.00
2023-02-14T03:51:01.070Z,94617.00
2023-02-14T03:52:00.847Z,94619.00
2023-02-14T03:53:00.812Z,94619.00
2023-02-14T03:54:00.845Z,94621.00
2023-02-14T03:55:00.888Z,94621.00
2023-02-14T03:56:00.917Z,94621.00
2023-02-14T03:57:00.965Z,94619.00
2023-02-14T03:58:00.994Z,94619.00
2023-02-14T03:59:01.012Z,94617.00
2023-02-14T04:00:01.214Z,94619.00
2023-02-14T04:01:01.522Z,94617.00
2023-02-14T04:02:01.163Z,94617.00
2023-02-14T04:03:01.155Z,94616.00
2023-02-14T04:04:01.174Z,94621.00
2023-02-14T04:05:01.326Z,94623.00
2023-02-14T04:06:01.252Z,94625.00
2023-02-14T04:07:01.278Z,94619.00
2023-02-14T04:08:01.322Z,94619.00
2023-02-14T04:09:01.342Z,94617.00
2023-02-14T04:10:01.353Z,94617.00
2023-02-14T04:11:01.820Z,94623.00
2023-02-14T04:12:01.424Z,94619.00
2023-02-14T04:13:01.474Z,94619.00
2023-02-14T04:14:01.509Z,94616.00
2023-02-14T04:15:01.556Z,94617.00
2023-02-14T04:16:01.577Z,94610.00
2023-02-14T04:17:01.687Z,94610.00
2023-02-14T04:18:01.637Z,94606.00
2023-02-14T04:19:01.665Z,94606.00
2023-02-14T04:20:01.702Z,94608.00
2023-02-14T04:21:01.935Z,94608.00
2023-02-14T04:22:01.767Z,94608.00
2023-02-14T04:23:03.428Z,94612.00
2023-02-14T04:24:01.830Z,94608.00
2023-02-14T04:25:01.872Z,94614.00
2023-02-14T04:26:01.992Z,94608.00
2023-02-14T04:27:01.952Z,94612.00
2023-02-14T04:28:01.980Z,94610.00
2023-02-14T04:29:02.072Z,94610.00
2023-02-14T04:30:02.122Z,94608.00
2023-02-14T04:31:02.593Z,94610.00
2023-02-14T04:32:02.250Z,94606.00
2023-02-14T04:33:02.150Z,94608.00
2023-02-14T04:34:02.179Z,94606.00
2023-02-14T04:35:02.206Z,94608.00
2023-02-14T04:36:02.235Z,94610.00
2023-02-14T04:37:02.322Z,94612.00
2023-02-14T04:38:02.298Z,94610.00
2023-02-14T04:39:02.328Z,94612.00
2023-02-14T04:40:02.364Z,94612.00
2023-02-14T04:41:02.707Z,94608.00
2023-02-14T04:42:02.427Z,94612.00
2023-02-14T04:43:02.449Z,94608.00
2023-02-14T04:44:02.473Z,94610.00
2023-02-14T04:45:04.214Z,94608.00
2023-02-14T04:46:02.544Z,94608.00
2023-02-14T04:47:02.577Z,94610.00
2023-02-14T04:48:02.600Z,94614.00
2023-02-14T04:49:02.633Z,94608.00
2023-02-14T04:50:02.725Z,94608.00
2023-02-14T04:51:02.722Z,94606.00
2023-02-14T04:52:02.705Z,94614.00
2023-02-14T04:53:02.743Z,94610.00
2023-02-14T04:54:02.785Z,94610.00
2023-02-14T04:55:02.775Z,94614.00
2023-02-14T04:56:02.813Z,94608.00
2023-02-14T04:57:02.840Z,94612.00
2023-02-14T04:58:03.813Z,94610.00
2023-02-14T04:59:02.907Z,94610.00
2023-02-14T05:00:02.947Z,94610.00
2023-02-14T05:01:03.449Z,94614.00
2023-02-14T05:02:03.066Z,94606.00
2023-02-14T05:03:03.016Z,94608.00
2023-02-14T05:04:03.046Z,94606.00
2023-02-14T05:05:03.085Z,94604.00
2023-02-14T05:06:03.121Z,94606.00
2023-02-14T05:07:03.145Z,94610.00
2023-02-14T05:08:03.179Z,94608.00
2023-02-14T05:09:03.203Z,94608.00
2023-02-14T05:10:03.242Z,94610.00
2023-02-14T05:11:03.284Z,94610.00
2023-02-14T05:12:03.315Z,94608.00
2023-02-14T05:13:03.358Z,94608.00
2023-02-14T05:14:03.365Z,94604.00
2023-02-14T05:15:03.390Z,94604.00
2023-02-14T05:16:03.444Z,94604.00
2023-02-14T05:17:03.448Z,94604.00
2023-02-14T05:18:03.480Z,94602.00
2023-02-14T05:19:03.517Z,94604.00
2023-02-14T05:20:03.531Z,94602.00
2023-02-14T05:21:03.555Z,94606.00
2023-02-14T05:22:03.583Z,94606.00
2023-02-14T05:23:03.649Z,94602.00
2023-02-14T05:24:03.646Z,94606.00
2023-02-14T05:41:04.098Z,94602.00
2023-02-14T05:42:04.124Z,94602.00
2023-02-14T05:43:04.155Z,94604.00
2023-02-14T05:44:04.174Z,94608.00
2023-02-14T05:45:04.203Z,94604.00
2023-02-14T05:46:04.269Z,94602.00
2023-02-14T05:47:04.277Z,94604.00
2023-02-14T05:48:04.333Z,94602.00
2023-02-14T05:49:04.314Z,94602.00
2023-02-14T05:50:04.353Z,94600.00
2023-02-14T05:51:04.399Z,94604.00
2023-02-14T05:52:04.392Z,94606.00
2023-02-14T05:53:04.524Z,94608.00
2023-02-14T05:54:04.451Z,94612.00
2023-02-14T05:55:04.491Z,94616.00
2023-02-14T05:56:04.500Z,94610.00
2023-02-14T07:12:07.358Z,94653.00
2023-02-14T07:36:07.250Z,94639.00
2023-02-14T07:37:07.301Z,94643.00
2023-02-14T07:38:07.354Z,94647.00
2023-02-14T07:39:07.359Z,94641.00
2023-02-14T07:40:14.057Z,94639.00
2023-02-14T07:41:08.337Z,94641.00
2023-02-14T07:42:07.314Z,94639.00
2023-02-14T07:43:07.275Z,94635.00
2023-02-14T07:55:07.265Z,94635.00
2023-02-14T07:59:07.294Z,94635.00
2023-02-14T08:00:07.331Z,94631.00
2023-02-14T08:01:07.345Z,94633.00
2023-02-14T08:02:07.385Z,94629.00
2023-02-14T08:03:08.373Z,94627.00
2023-02-14T08:04:07.472Z,94631.00
2023-02-14T08:05:07.567Z,94627.00
2023-02-14T08:06:07.512Z,94629.00
2023-02-14T08:07:08.385Z,94625.00
2023-02-14T08:08:08.381Z,94633.00
2023-02-14T08:09:07.582Z,94616.00
2023-02-14T08:10:07.608Z,94625.00
2023-02-14T08:11:07.619Z,94608.00
2023-02-14T08:12:07.647Z,94619.00
2023-02-14T08:13:07.712Z,94623.00
2023-02-14T08:14:07.756Z,94617.00
2023-02-14T08:15:07.743Z,94621.00
2023-02-14T08:16:07.802Z,94621.00
2023-02-14T08:17:07.775Z,94617.00
2023-02-14T08:18:08.370Z,94617.00
2023-02-14T08:19:07.837Z,94614.00
2023-02-14T08:20:07.866Z,94616.00
2023-02-14T08:21:07.896Z,94614.00
2023-02-14T08:22:07.934Z,94614.00
2023-02-14T08:23:08.921Z,94610.00
2023-02-14T08:24:08.038Z,94612.00
2023-02-14T08:25:08.004Z,94610.00
2023-02-14T08:26:08.034Z,94606.00
2023-02-14T08:27:08.053Z,94604.00
2023-02-14T08:28:08.078Z,94610.00
2023-02-14T08:29:08.093Z,94602.00
2023-02-14T08:30:08.205Z,94596.00
2023-02-14T08:31:08.173Z,94596.00
2023-02-14T08:32:08.289Z,94598.00
2023-02-14T08:33:08.199Z,94598.00
2023-02-14T08:34:08.218Z,94600.00
2023-02-14T08:35:08.248Z,94600.00
2023-02-14T08:36:08.265Z,94602.00
2023-02-14T08:37:08.284Z,94602.00
2023-02-14T08:38:08.320Z,94600.00
2023-02-14T08:39:08.311Z,94594.00
2023-02-14T08:40:08.324Z,94592.00
2023-02-14T08:41:09.368Z,94596.00
2023-02-14T08:42:08.370Z,94596.00
2023-02-14T08:43:08.388Z,94590.00
2023-02-14T08:44:08.400Z,94586.00
2023-02-14T08:45:08.412Z,94584.00
2023-02-14T08:46:08.519Z,94584.00
2023-02-14T09:27:08.914Z,94545.00
2023-02-14T09:29:08.905Z,94549.00
2023-02-14T09:30:08.913Z,94547.00
2023-02-14T09:31:09.039Z,94545.00
2023-02-14T09:32:09.024Z,94545.00
2023-02-14T09:33:08.872Z,94541.00
2023-02-14T09:34:08.892Z,94543.00
2023-02-14T09:35:08.866Z,94541.00
2023-02-14T09:36:08.851Z,94543.00
2023-02-14T09:37:08.850Z,94539.00
2023-02-14T09:38:08.832Z,94539.00
2023-02-14T09:39:08.824Z,94541.00
2023-02-14T09:40:08.817Z,94535.00
2023-02-14T09:41:08.898Z,94533.00
2023-02-14T09:42:08.793Z,94530.00
2023-02-14T09:43:08.794Z,94526.00
2023-02-14T09:44:08.786Z,94528.00
2023-02-14T09:45:08.752Z,94524.00
2023-02-14T09:46:08.892Z,94522.00
2023-02-14T09:47:08.919Z,94518.00
2023-02-14T09:48:08.747Z,94514.00
2023-02-14T09:49:08.732Z,94516.00
2023-02-14T09:50:08.781Z,94518.00
2023-02-14T09:51:08.639Z,94510.00
2023-02-14T09:52:08.912Z,94510.00
2023-02-14T09:53:08.591Z,94508.00
2023-02-14T09:54:08.561Z,94506.00
2023-02-14T09:55:08.550Z,94502.00
2023-02-14T09:56:08.522Z,94504.00
2023-02-14T09:57:08.489Z,94502.00
2023-02-14T09:58:08.468Z,94504.00
2023-02-14T09:59:08.422Z,94500.00
2023-02-14T10:00:08.476Z,94494.00
2023-02-14T10:01:08.397Z,94496.00
2023-02-14T10:02:08.464Z,94494.00
2023-02-14T10:03:08.305Z,94492.00
2023-02-14T10:04:08.257Z,94488.00
2023-02-14T10:05:08.213Z,94488.00
2023-02-14T10:06:08.192Z,94480.00
2023-02-14T10:07:08.130Z,94484.00
2023-02-14T10:08:08.099Z,94486.00
2023-02-14T10:09:08.068Z,94486.00
2023-02-14T10:10:08.016Z,94478.00
2023-02-14T10:11:07.978Z,94478.00
2023-02-14T10:12:07.948Z,94473.00
2023-02-14T10:13:07.946Z,94475.00
2023-02-14T10:14:07.905Z,94475.00
2023-02-14T10:15:07.858Z,94473.00
2023-02-14T10:16:07.946Z,94467.00
2023-02-14T10:17:07.814Z,94469.00
2023-02-14T10:18:07.805Z,94463.00
2023-02-14T10:19:07.806Z,94469.00
2023-02-14T10:20:07.793Z,94461.00
2023-02-14T10:21:07.782Z,94461.00
2023-02-14T10:22:07.796Z,94461.00
2023-02-14T10:23:07.866Z,94457.00
2023-02-14T10:24:07.855Z,94459.00
2023-02-14T10:25:07.868Z,94457.00
2023-02-14T10:26:07.897Z,94459.00
2023-02-14T10:28:08.004Z,94455.00
2023-02-14T10:29:08.006Z,94455.00
2023-02-14T10:30:08.031Z,94457.00
2023-02-14T10:31:08.108Z,94451.00
2023-02-14T10:32:08.149Z,94445.00
2023-02-14T10:33:08.026Z,94445.00
2023-02-14T10:34:08.049Z,94451.00
2023-02-14T10:35:08.081Z,94447.00
2023-02-14T10:36:08.064Z,94439.00
2023-02-14T10:37:08.094Z,94439.00
2023-02-14T10:38:08.093Z,94439.00
2023-02-14T10:39:08.134Z,94437.00
2023-02-14T10:40:08.137Z,94428.00
2023-02-14T10:41:08.140Z,94430.00
2023-02-14T10:42:08.156Z,94428.00
2023-02-14T10:43:08.439Z,94422.00
2023-02-14T10:44:08.165Z,94424.00
2023-02-14T10:45:08.180Z,94418.00
2023-02-14T10:46:08.243Z,94414.00
2023-02-14T10:47:08.199Z,94414.00
2023-02-14T10:48:08.215Z,94406.00
2023-02-14T10:49:08.220Z,94402.00
2023-02-14T10:50:08.203Z,94402.00
2023-02-14T10:51:08.205Z,94398.00
2023-02-14T10:52:08.258Z,94402.00
2023-02-14T10:53:08.206Z,94391.00
2023-02-14T10:54:08.211Z,94392.00
2023-02-14T10:55:08.204Z,94391.00
2023-02-14T10:56:08.208Z,94389.00
2023-02-14T10:57:08.194Z,94389.00
2023-02-14T10:58:08.237Z,94383.00
2023-02-14T10:59:08.176Z,94383.00
2023-02-14T11:00:08.170Z,94379.00
2023-02-14T11:01:08.200Z,94377.00
2023-02-14T11:02:08.152Z,94375.00
2023-02-14T11:03:08.190Z,94375.00
2023-02-14T11:04:08.855Z,94369.00
2023-02-14T11:05:08.099Z,94373.00
2023-02-14T11:06:08.095Z,94365.00
2023-02-14T11:08:08.051Z,94365.00
2023-02-14T11:09:08.032Z,94359.00
2023-02-14T11:10:08.034Z,94361.00
2023-02-14T11:11:07.974Z,94359.00
2023-02-14T11:12:07.965Z,94357.00
2023-02-14T11:13:07.922Z,94357.00
2023-02-14T11:14:07.899Z,94359.00
2023-02-14T11:15:07.858Z,94351.00
2023-02-14T11:16:07.820Z,94351.00
2023-02-14T11:17:07.775Z,94349.00
2023-02-14T11:18:07.740Z,94345.00
2023-02-14T11:19:07.705Z,94347.00
2023-02-14T11:20:07.657Z,94345.00
2023-02-14T11:21:07.637Z,94347.00
2023-02-14T11:22:07.578Z,94344.00
2023-02-14T11:27:07.377Z,94330.00
2023-02-14T11:28:07.300Z,94326.00
2023-02-14T15:42:00.726Z,94050.00
2023-02-14T15:58:00.273Z,94062.00
2023-02-14T15:59:00.239Z,94064.00
2023-02-14T16:00:00.209Z,94062.00
2023-02-14T16:02:00.165Z,94066.00
2023-02-14T16:03:00.156Z,94066.00
2023-02-14T16:04:00.130Z,94068.00
2023-02-14T16:05:00.196Z,94068.00
2023-02-14T16:06:00.115Z,94072.00
2023-02-14T16:07:00.094Z,94072.00
2023-02-14T16:08:00.065Z,94073.00
2023-02-14T16:09:00.045Z,94077.00
2023-02-14T16:10:00.042Z,94079.00
2023-02-14T16:11:00.292Z,94079.00
2023-02-14T16:12:00.020Z,94079.00
2023-02-14T16:13:00.009Z,94081.00
2023-02-14T16:14:00.013Z,94079.00
2023-02-14T16:15:00.003Z,94077.00
2023-02-14T16:16:00.191Z,94081.00
2023-02-14T16:16:59.985Z,94081.00
2023-02-14T16:17:59.971Z,94083.00
2023-02-14T16:18:59.969Z,94085.00
2023-02-14T16:19:59.968Z,94087.00
2023-02-14T16:21:00.271Z,94089.00
2023-02-14T16:21:59.954Z,94091.00
2023-02-14T16:22:59.949Z,94093.00
2023-02-14T16:23:59.947Z,94091.00
2023-02-14T16:24:59.940Z,94093.00
2023-02-14T16:25:59.946Z,94093.00
2023-02-14T16:26:59.944Z,94097.00
2023-02-14T16:27:59.949Z,94099.00
2023-02-14T16:28:59.968Z,94099.00
2023-02-14T16:30:00.007Z,94099.00
2023-02-14T16:31:00.579Z,94103.00
2023-02-14T16:32:15.804Z,94099.00
2023-02-14T16:33:59.916Z,94105.00
2023-02-14T16:34:59.843Z,94107.00
2023-02-14T16:35:59.799Z,94107.00
2023-02-14T16:36:59.750Z,94111.00
2023-02-14T16:37:59.709Z,94113.00
2023-02-14T16:38:59.685Z,94111.00
2023-02-14T16:39:59.629Z,94115.00
2023-02-14T16:40:59.863Z,94115.00
2023-02-14T16:41:59.547Z,94119.00
2023-02-14T16:42:59.645Z,94120.00
2023-02-14T16:43:59.591Z,94124.00
2023-02-14T16:44:59.604Z,94124.00
2023-02-14T16:45:59.620Z,94126.00
2023-02-14T16:46:59.636Z,94124.00
2023-02-14T16:47:59.661Z,94130.00
2023-02-14T16:48:59.697Z,94132.00
2023-02-14T16:49:59.705Z,94132.00
2023-02-14T16:51:00.100Z,94136.00
2023-02-14T16:51:59.748Z,94136.00
2023-02-14T16:52:59.782Z,94140.00
2023-02-14T16:54:59.846Z,94144.00
2023-02-14T16:55:59.865Z,94142.00
2023-02-14T16:56:59.874Z,94146.00
2023-02-14T16:57:59.901Z,94146.00
2023-02-14T16:58:59.934Z,94148.00
2023-02-14T16:59:59.974Z,94157.00
2023-02-14T17:01:00.317Z,94159.00
2023-02-14T17:01:59.997Z,94157.00
2023-02-14T17:03:00.038Z,94161.00
2023-02-14T17:04:00.042Z,94159.00
2023-02-14T17:05:00.067Z,94163.00
2023-02-14T17:06:00.106Z,94161.00
2023-02-14T17:07:00.131Z,94165.00
2023-02-14T17:08:01.683Z,94163.00
2023-02-14T17:09:00.139Z,94165.00
2023-02-14T17:10:00.187Z,94165.00
2023-02-14T17:11:00.461Z,94167.00
2023-02-14T17:12:00.200Z,94171.00
2023-02-14T17:13:00.199Z,94171.00
2023-02-14T17:14:00.214Z,94173.00
2023-02-14T17:15:00.225Z,94173.00
2023-02-14T17:16:00.364Z,94177.00
2023-02-14T17:17:00.301Z,94179.00
2023-02-14T17:18:00.297Z,94177.00
2023-02-14T17:19:00.311Z,94179.00
2023-02-14T17:20:00.346Z,94181.00
2023-02-14T17:21:00.759Z,94183.00
2023-02-14T17:22:00.365Z,94187.00
2023-02-14T17:23:00.326Z,94183.00
2023-02-14T17:24:00.292Z,94187.00
2023-02-14T17:25:00.284Z,94183.00
2023-02-14T17:26:00.241Z,94185.00
2023-02-14T17:27:00.211Z,94187.00
2023-02-14T17:28:00.196Z,94189.00
2023-02-14T17:29:00.163Z,94193.00
2023-02-14T17:30:00.268Z,94191.00
2023-02-14T17:31:00.953Z,94197.00
2023-02-14T17:32:00.215Z,94197.00
2023-02-14T17:33:00.090Z,94197.00
2023-02-14T17:34:00.052Z,94199.00
2023-02-14T17:35:00.057Z,94199.00
2023-02-14T17:35:59.976Z,94201.00
2023-02-14T17:36:59.945Z,94199.00
2023-02-14T17:37:59.932Z,94201.00
2023-02-14T18:54:58.873Z,94240.00
2023-02-14T18:55:58.861Z,94242.00
2023-02-14T18:56:58.861Z,94242.00
2023-02-14T18:57:58.849Z,94240.00
2023-02-14T18:58:58.834Z,94242.00
2023-02-14T18:59:58.913Z,94244.00
2023-02-14T19:01:58.862Z,94246.00
2023-02-14T19:02:58.809Z,94246.00
2023-02-14T19:03:58.949Z,94246.00
2023-02-14T19:04:58.790Z,94246.00
2023-02-14T19:05:58.780Z,94248.00
2023-02-14T19:06:58.768Z,94248.00
2023-02-14T19:07:58.777Z,94248.00
2023-02-14T19:08:58.762Z,94250.00
2023-02-14T19:09:58.752Z,94253.00
2023-02-14T19:10:59.164Z,94255.00
2023-02-14T19:11:58.739Z,94250.00
2023-02-14T19:12:58.752Z,94251.00
2023-02-14T19:13:58.742Z,94250.00
2023-02-14T19:14:58.745Z,94253.00
2023-02-14T19:15:58.750Z,94251.00
2023-02-14T19:16:58.743Z,94253.00
2023-02-14T19:17:58.747Z,94253.00
2023-02-14T19:18:58.749Z,94251.00
2023-02-14T19:19:58.748Z,94251.00
2023-02-14T19:20:58.913Z,94253.00
2023-02-14T19:21:58.730Z,94251.00
2023-02-14T19:22:58.718Z,94255.00
2023-02-14T19:23:58.738Z,94251.00
2023-02-14T19:24:58.711Z,94251.00
2023-02-14T19:25:58.789Z,94253.00
2023-02-14T19:26:58.701Z,94251.00
2023-02-14T19:27:58.702Z,94253.00
2023-02-14T19:28:59.668Z,94255.00
2023-02-14T19:29:58.733Z,94253.00
2023-02-14T19:43:58.661Z,94255.00
2023-02-14T19:44:58.658Z,94255.00
2023-02-14T19:45:58.688Z,94257.00
2023-02-14T19:46:58.655Z,94255.00
2023-02-14T19:47:58.647Z,94255.00
2023-02-14T19:48:58.652Z,94251.00
2023-02-14T19:49:58.642Z,94251.00
2023-02-14T19:50:58.918Z,94251.00
2023-02-14T19:51:58.648Z,94251.00
2023-02-14T19:52:58.640Z,94251.00
2023-02-14T19:53:58.638Z,94251.00
2023-02-14T19:54:58.633Z,94253.00
2023-02-14T19:55:58.636Z,94253.00
2023-02-14T19:56:58.636Z,94255.00
2023-02-14T19:57:58.619Z,94251.00
2023-02-14T19:58:58.614Z,94255.00
2023-02-14T19:59:58.614Z,94250.00
2023-02-14T20:00:59.761Z,94253.00
2023-02-14T20:01:59.164Z,94251.00
2023-02-14T20:02:58.606Z,94253.00
2023-02-14T20:03:58.607Z,94253.00
2023-02-14T20:04:58.596Z,94251.00
2023-02-14T20:05:58.597Z,94255.00
2023-02-14T20:06:58.623Z,94253.00
2023-02-14T20:07:58.591Z,94253.00
2023-02-14T20:08:58.588Z,94253.00
2023-02-14T20:09:58.588Z,94255.00
2023-02-14T20:10:58.873Z,94253.00
2023-02-14T20:11:58.579Z,94255.00
2023-02-14T20:12:58.609Z,94257.00
2023-02-14T20:13:58.573Z,94255.00
2023-02-14T20:14:58.641Z,94255.00
2023-02-14T20:15:58.576Z,94255.00
2023-02-14T20:16:58.757Z,94257.00
2023-02-14T20:17:58.605Z,94255.00
2023-02-14T20:18:58.578Z,94257.00
2023-02-14T20:19:58.575Z,94255.00
2023-02-14T20:20:58.812Z,94255.00
2023-02-14T20:21:58.575Z,94253.00
2023-02-14T20:22:58.557Z,94253.00
2023-02-14T20:23:58.553Z,94253.00
2023-02-14T20:24:58.622Z,94257.00
2023-02-14T20:25:58.567Z,94255.00
2023-02-14T20:26:58.550Z,94251.00
2023-02-14T20:27:58.558Z,94253.00
2023-02-14T20:28:58.599Z,94251.00
2023-02-14T20:29:58.595Z,94253.00
2023-02-14T20:30:58.744Z,94257.00
2023-02-14T20:31:58.649Z,94253.00
2023-02-14T20:32:58.562Z,94255.00
2023-02-14T20:33:58.636Z,94255.00
2023-02-14T20:34:58.929Z,94251.00
2023-02-14T20:35:58.672Z,94251.00
2023-02-14T20:36:58.628Z,94255.00
2023-02-14T20:37:58.608Z,94251.00
2023-02-14T20:38:58.607Z,94251.00
2023-02-14T20:39:58.601Z,94251.00
2023-02-14T20:40:58.712Z,94253.00
2023-02-14T20:41:58.627Z,94251.00
2023-02-14T20:42:58.645Z,94251.00
2023-02-14T20:43:58.653Z,94251.00
2023-02-14T20:44:59.278Z,94253.00
2023-02-14T20:45:58.721Z,94251.00
2023-02-14T20:46:58.716Z,94250.00
2023-02-14T20:47:58.714Z,94251.00
2023-02-14T20:48:58.716Z,94255.00
2023-02-14T20:49:58.586Z,94253.00
2023-02-14T20:50:58.947Z,94255.00
2023-02-14T20:51:58.668Z,94251.00
2023-02-14T20:52:58.769Z,94251.00
2023-02-14T20:53:58.679Z,94253.00
2023-02-14T20:54:58.685Z,94251.00
2023-02-14T20:55:58.609Z,94255.00
2023-02-14T20:56:58.654Z,94253.00
2023-02-14T20:57:58.624Z,94251.00
2023-02-14T20:58:58.637Z,94255.00
2023-02-14T20:59:58.733Z,94257.00
2023-02-14T21:00:59.037Z,94257.00
2023-02-14T21:01:58.670Z,94255.00
2023-02-14T21:02:58.589Z,94257.00
2023-02-14T21:03:59.222Z,94257.00
2023-02-14T21:04:58.683Z,94259.00
2023-02-14T21:05:58.633Z,94257.00
2023-02-14T21:06:58.640Z,94259.00
2023-02-14T21:07:58.617Z,94261.00
2023-02-14T21:08:58.621Z,94257.00
2023-02-14T21:09:58.659Z,94257.00
2023-02-14T21:10:58.860Z,94259.00
2023-02-14T21:11:58.637Z,94257.00
2023-02-14T21:12:58.638Z,94257.00
2023-02-14T21:13:59.849Z,94257.00
2023-02-14T21:14:58.640Z,94255.00
2023-02-14T21:15:58.670Z,94255.00
2023-02-14T21:16:58.642Z,94259.00
2023-02-14T21:17:58.644Z,94257.00
2023-02-14T21:18:58.652Z,94255.00
2023-02-14T21:19:58.640Z,94257.00
2023-02-14T21:20:58.814Z,94257.00
2023-02-14T21:21:58.660Z,94255.00
2023-02-14T21:22:58.643Z,94255.00
2023-02-14T21:23:58.653Z,94255.00
2023-02-14T21:24:58.723Z,94255.00
2023-02-14T21:25:58.669Z,94257.00
2023-02-14T21:26:58.686Z,94253.00
2023-02-14T21:27:58.683Z,94251.00
2023-02-14T21:28:58.774Z,94257.00
2023-02-14T21:29:58.698Z,94253.00
2023-02-14T21:30:59.184Z,94255.00
2023-02-14T21:31:59.303Z,94255.00
2023-02-14T21:32:58.721Z,94253.00
2023-02-14T21:33:58.752Z,94253.00
2023-02-14T21:34:58.755Z,94255.00
2023-02-14T21:35:58.827Z,94257.00
2023-02-14T21:36:58.772Z,94257.00
2023-02-14T21:37:58.778Z,94255.00
2023-02-14T21:38:58.795Z,94251.00
2023-02-14T21:39:58.819Z,94253.00
2023-02-14T21:40:59.140Z,94255.00
2023-02-14T21:41:58.817Z,94251.00
2023-02-14T21:42:58.891Z,94250.00
2023-02-14T21:43:58.844Z,94250.00
2023-02-14T21:44:58.844Z,94246.00
2023-02-14T21:45:58.889Z,94248.00
2023-02-14T22:19:59.348Z,94230.00
2023-02-14T22:20:59.821Z,94230.00
2023-02-14T22:21:59.439Z,94230.00
2023-02-14T22:22:59.375Z,94232.00
2023-02-14T22:23:59.403Z,94230.00
2023-02-14T22:24:59.398Z,94232.00
2023-02-14T22:25:59.415Z,94224.00
2023-02-14T22:26:59.432Z,94228.00
2023-02-14T22:27:59.455Z,94228.00
2023-02-14T22:28:59.483Z,94224.00
2023-02-14T22:29:59.778Z,94224.00
2023-02-14T22:30:59.858Z,94222.00
2023-02-14T22:31:59.592Z,94222.00
2023-02-14T22:32:59.556Z,94226.00
2023-02-14T22:33:59.543Z,94222.00
2023-02-14T22:34:59.561Z,94226.00
2023-02-14T22:36:00.193Z,94222.00
2023-02-14T22:36:59.595Z,94224.00
2023-02-14T22:37:59.612Z,94222.00
2023-02-14T22:38:59.623Z,94224.00
2023-02-14T22:39:59.640Z,94224.00
2023-02-14T22:40:59.966Z,94226.00
2023-02-14T22:41:59.671Z,94228.00
2023-02-14T22:42:59.674Z,94230.00
2023-02-14T22:43:59.698Z,94226.00